sensor_id;sensor_type;location;lat;lon;timestamp;pressure;altitude;pressure_sealevel;temperature;humidity
43503;BME280;29098;48.184;16.298;2023-04-28T00:02:08;99706.88;;;6.17;80.06
43503;BME280;29098;48.184;16.298;2023-04-28T00:04:34;99685.41;;;6.13;80.43
43503;BME280;29098;48.184;16.298;2023-04-28T00:06:59;99724.16;;;6.38;80.33
43503;BME280;29098;48.184;16.298;2023-04-28T00:09:25;99699.69;;;6.19;81.05
43503;BME280;29098;48.184;16.298;2023-04-28T00:11:50;99711.03;;;6.10;81.33
43503;BME280;29098;48.184;16.298;2023-04-28T00:14:16;99725.09;;;6.09;82.26
43503;BME280;29098;48.184;16.298;2023-04-28T00:16:42;99721.91;;;6.15;81.91
43503;BME280;29098;48.184;16.298;2023-04-28T00:19:07;99722.47;;;5.99;82.14
43503;BME280;29098;48.184;16.298;2023-04-28T00:21:33;99738.97;;;6.19;81.63
43503;BME280;29098;48.184;16.298;2023-04-28T00:23:58;99720.94;;;6.16;82.04
43503;BME280;29098;48.184;16.298;2023-04-28T00:26:24;99727.31;;;6.03;82.16
43503;BME280;29098;48.184;16.298;2023-04-28T00:28:49;99708.63;;;5.79;82.83
43503;BME280;29098;48.184;16.298;2023-04-28T00:31:15;99720.69;;;5.99;82.32
43503;BME280;29098;48.184;16.298;2023-04-28T00:33:42;99709.56;;;5.87;82.64
43503;BME280;29098;48.184;16.298;2023-04-28T00:36:08;99709.81;;;6.04;82.49
43503;BME280;29098;48.184;16.298;2023-04-28T00:38:34;99718.75;;;6.11;82.32
43503;BME280;29098;48.184;16.298;2023-04-28T00:41:00;99712.72;;;5.91;83.07
43503;BME280;29098;48.184;16.298;2023-04-28T00:43:26;99703.28;;;5.70;83.32
43503;BME280;29098;48.184;16.298;2023-04-28T00:45:52;99673.00;;;5.58;83.69
43503;BME280;29098;48.184;16.298;2023-04-28T00:48:18;99664.03;;;5.70;83.22
43503;BME280;29098;48.184;16.298;2023-04-28T00:50:45;99696.31;;;5.89;83.18
43503;BME280;29098;48.184;16.298;2023-04-28T00:53:12;99637.91;;;5.60;83.05
43503;BME280;29098;48.184;16.298;2023-04-28T00:55:37;99716.69;;;5.95;83.10
43503;BME280;29098;48.184;16.298;2023-04-28T00:58:04;99651.69;;;5.62;83.07
43503;BME280;29098;48.184;16.298;2023-04-28T01:00:30;99700.78;;;5.79;83.89
43503;BME280;29098;48.184;16.298;2023-04-28T01:02:58;99687.16;;;5.65;83.53
43503;BME280;29098;48.184;16.298;2023-04-28T01:05:25;99677.78;;;5.72;84.09
43503;BME280;29098;48.184;16.298;2023-04-28T01:07:51;99713.72;;;5.90;83.86
43503;BME280;29098;48.184;16.298;2023-04-28T01:10:16;99700.31;;;5.93;83.66
43503;BME280;29098;48.184;16.298;2023-04-28T01:12:42;99674.22;;;5.73;83.96
43503;BME280;29098;48.184;16.298;2023-04-28T01:15:18;99665.75;;;5.52;84.61
43503;BME280;29098;48.184;16.298;2023-04-28T01:17:45;99697.06;;;5.81;84.22
43503;BME280;29098;48.184;16.298;2023-04-28T01:20:11;99656.09;;;5.42;84.76
43503;BME280;29098;48.184;16.298;2023-04-28T01:22:37;99673.44;;;5.53;85.14
43503;BME280;29098;48.184;16.298;2023-04-28T01:25:02;99656.09;;;5.52;85.38
43503;BME280;29098;48.184;16.298;2023-04-28T01:27:28;99670.25;;;5.69;84.93
43503;BME280;29098;48.184;16.298;2023-04-28T01:29:53;99699.41;;;5.74;84.88
43503;BME280;29098;48.184;16.298;2023-04-28T01:32:19;99645.81;;;5.41;85.39
43503;BME280;29098;48.184;16.298;2023-04-28T01:34:45;99653.22;;;5.45;85.49
43503;BME280;29098;48.184;16.298;2023-04-28T01:37:11;99694.09;;;5.56;86.24
43503;BME280;29098;48.184;16.298;2023-04-28T01:39:37;99655.00;;;5.35;86.23
43503;BME280;29098;48.184;16.298;2023-04-28T01:42:03;99661.63;;;5.39;86.23
43503;BME280;29098;48.184;16.298;2023-04-28T01:44:28;99677.13;;;5.60;86.14
43503;BME280;29098;48.184;16.298;2023-04-28T01:46:54;99655.00;;;5.35;86.40
43503;BME280;29098;48.184;16.298;2023-04-28T01:49:19;99661.06;;;5.45;86.32
43503;BME280;29098;48.184;16.298;2023-04-28T01:51:45;99673.31;;;5.35;86.94
43503;BME280;29098;48.184;16.298;2023-04-28T01:54:10;99683.78;;;5.35;87.19
43503;BME280;29098;48.184;16.298;2023-04-28T01:56:36;99635.38;;;5.11;87.97
43503;BME280;29098;48.184;16.298;2023-04-28T01:59:01;99659.03;;;5.29;87.44
43503;BME280;29098;48.184;16.298;2023-04-28T02:01:27;99678.69;;;5.43;87.06
43503;BME280;29098;48.184;16.298;2023-04-28T02:03:53;99691.91;;;5.32;88.07
43503;BME280;29098;48.184;16.298;2023-04-28T02:06:19;99658.59;;;5.34;87.27
43503;BME280;29098;48.184;16.298;2023-04-28T02:08:45;99702.91;;;5.45;87.56
43503;BME280;29098;48.184;16.298;2023-04-28T02:11:11;99697.38;;;5.48;87.38
43503;BME280;29098;48.184;16.298;2023-04-28T02:13:37;99697.38;;;5.58;86.68
43503;BME280;29098;48.184;16.298;2023-04-28T02:16:02;99664.22;;;5.49;87.05
43503;BME280;29098;48.184;16.298;2023-04-28T02:18:28;99643.47;;;5.38;86.87
43503;BME280;29098;48.184;16.298;2023-04-28T02:20:53;99669.59;;;5.38;87.81
43503;BME280;29098;48.184;16.298;2023-04-28T02:23:19;99671.41;;;5.37;87.54
43503;BME280;29098;48.184;16.298;2023-04-28T02:25:45;99684.47;;;5.37;88.13
43503;BME280;29098;48.184;16.298;2023-04-28T02:28:10;99655.84;;;5.35;87.74
43503;BME280;29098;48.184;16.298;2023-04-28T02:30:37;99679.75;;;5.51;87.39
43503;BME280;29098;48.184;16.298;2023-04-28T02:33:02;99647.03;;;5.27;87.82
43503;BME280;29098;48.184;16.298;2023-04-28T02:35:28;99643.91;;;5.13;88.32
43503;BME280;29098;48.184;16.298;2023-04-28T02:37:54;99659.84;;;5.10;89.23
43503;BME280;29098;48.184;16.298;2023-04-28T02:40:19;99688.06;;;5.26;88.89
43503;BME280;29098;48.184;16.298;2023-04-28T02:42:45;99619.00;;;4.99;88.54
43503;BME280;29098;48.184;16.298;2023-04-28T02:45:10;99625.88;;;5.10;89.10
43503;BME280;29098;48.184;16.298;2023-04-28T02:47:36;99672.94;;;5.30;88.93
43503;BME280;29098;48.184;16.298;2023-04-28T02:50:01;99664.53;;;5.06;89.66
43503;BME280;29098;48.184;16.298;2023-04-28T02:52:27;99660.28;;;4.96;89.68
43503;BME280;29098;48.184;16.298;2023-04-28T02:54:53;99680.09;;;5.18;89.54
43503;BME280;29098;48.184;16.298;2023-04-28T02:57:21;99684.59;;;5.16;90.12
43503;BME280;29098;48.184;16.298;2023-04-28T02:59:47;99692.44;;;5.26;89.38
43503;BME280;29098;48.184;16.298;2023-04-28T03:02:12;99648.03;;;5.06;89.64
43503;BME280;29098;48.184;16.298;2023-04-28T03:04:38;99656.28;;;5.11;89.65
43503;BME280;29098;48.184;16.298;2023-04-28T03:07:03;99634.44;;;4.92;90.14
43503;BME280;29098;48.184;16.298;2023-04-28T03:09:29;99659.72;;;4.92;90.45
43503;BME280;29098;48.184;16.298;2023-04-28T03:11:54;99668.53;;;5.01;90.86
43503;BME280;29098;48.184;16.298;2023-04-28T03:14:20;99638.56;;;5.05;90.36
43503;BME280;29098;48.184;16.298;2023-04-28T03:16:46;99634.41;;;4.83;91.06
43503;BME280;29098;48.184;16.298;2023-04-28T03:19:11;99652.31;;;4.97;91.12
43503;BME280;29098;48.184;16.298;2023-04-28T03:21:37;99654.50;;;5.02;90.85
43503;BME280;29098;48.184;16.298;2023-04-28T03:24:03;99630.84;;;4.93;90.55
43503;BME280;29098;48.184;16.298;2023-04-28T03:26:28;99632.50;;;4.94;90.40
43503;BME280;29098;48.184;16.298;2023-04-28T03:28:54;99656.00;;;4.94;90.96
43503;BME280;29098;48.184;16.298;2023-04-28T03:31:21;99653.25;;;4.76;92.35
43503;BME280;29098;48.184;16.298;2023-04-28T03:33:46;99636.22;;;4.82;91.56
43503;BME280;29098;48.184;16.298;2023-04-28T03:36:12;99656.97;;;4.84;91.40
43503;BME280;29098;48.184;16.298;2023-04-28T03:38:37;99640.19;;;4.66;92.10
43503;BME280;29098;48.184;16.298;2023-04-28T03:41:03;99663.69;;;4.76;92.42
43503;BME280;29098;48.184;16.298;2023-04-28T03:43:28;99658.63;;;4.75;92.58
43503;BME280;29098;48.184;16.298;2023-04-28T03:45:54;99632.22;;;4.68;92.14
43503;BME280;29098;48.184;16.298;2023-04-28T03:48:20;99637.72;;;4.85;91.93
43503;BME280;29098;48.184;16.298;2023-04-28T03:50:45;99646.78;;;4.71;92.24
43503;BME280;29098;48.184;16.298;2023-04-28T03:53:11;99659.44;;;4.85;91.94
43503;BME280;29098;48.184;16.298;2023-04-28T03:55:37;99615.88;;;4.76;91.35
43503;BME280;29098;48.184;16.298;2023-04-28T03:58:03;99625.63;;;4.74;91.75
43503;BME280;29098;48.184;16.298;2023-04-28T04:00:28;99599.34;;;4.65;91.76
43503;BME280;29098;48.184;16.298;2023-04-28T04:02:53;99638.94;;;4.71;92.11
43503;BME280;29098;48.184;16.298;2023-04-28T04:05:19;99640.59;;;4.72;92.05
43503;BME280;29098;48.184;16.298;2023-04-28T04:07:44;99665.50;;;4.96;91.67
43503;BME280;29098;48.184;16.298;2023-04-28T04:10:10;99610.50;;;4.77;91.75
43503;BME280;29098;48.184;16.298;2023-04-28T04:12:35;99654.25;;;4.95;92.35
43503;BME280;29098;48.184;16.298;2023-04-28T04:15:01;99650.91;;;5.03;91.52
43503;BME280;29098;48.184;16.298;2023-04-28T04:17:27;99616.44;;;4.89;92.16
43503;BME280;29098;48.184;16.298;2023-04-28T04:19:53;99618.22;;;4.99;92.27
43503;BME280;29098;48.184;16.298;2023-04-28T04:22:18;99620.81;;;4.99;92.17
43503;BME280;29098;48.184;16.298;2023-04-28T04:24:44;99629.47;;;5.09;92.14
43503;BME280;29098;48.184;16.298;2023-04-28T04:27:09;99653.13;;;5.17;91.78
43503;BME280;29098;48.184;16.298;2023-04-28T04:29:36;99674.31;;;5.24;90.90
43503;BME280;29098;48.184;16.298;2023-04-28T04:32:01;99650.13;;;5.12;91.32
43503;BME280;29098;48.184;16.298;2023-04-28T04:34:27;99656.81;;;5.34;90.85
43503;BME280;29098;48.184;16.298;2023-04-28T04:36:52;99629.28;;;5.30;90.57
43503;BME280;29098;48.184;16.298;2023-04-28T04:39:18;99654.47;;;5.41;90.58
43503;BME280;29098;48.184;16.298;2023-04-28T04:41:43;99615.41;;;5.40;91.02
43503;BME280;29098;48.184;16.298;2023-04-28T04:44:09;99633.94;;;5.46;90.70
43503;BME280;29098;48.184;16.298;2023-04-28T04:46:34;99611.47;;;5.64;89.75
43503;BME280;29098;48.184;16.298;2023-04-28T04:49:00;99611.03;;;5.78;89.29
43503;BME280;29098;48.184;16.298;2023-04-28T04:51:25;99623.19;;;5.97;88.40
43503;BME280;29098;48.184;16.298;2023-04-28T04:53:52;99628.31;;;6.27;87.80
43503;BME280;29098;48.184;16.298;2023-04-28T04:56:17;99630.38;;;6.51;nan
43503;BME280;29098;48.184;16.298;2023-04-28T04:58:43;99638.59;;;6.56;85.04
43503;BME280;29098;48.184;16.298;2023-04-28T05:01:09;99642.72;;;6.59;84.56
43503;BME280;29098;48.184;16.298;2023-04-28T05:03:34;99621.69;;;6.69;85.18
43503;BME280;29098;48.184;16.298;2023-04-28T05:06:00;99625.56;;;6.65;84.86
43503;BME280;29098;48.184;16.298;2023-04-28T05:08:27;99637.88;;;6.82;83.34
43503;BME280;29098;48.184;16.298;2023-04-28T05:10:52;99637.41;;;7.05;79.38
43503;BME280;29098;48.184;16.298;2023-04-28T05:13:18;99645.34;;;7.13;79.42
43503;BME280;29098;48.184;16.298;2023-04-28T05:15:43;99623.22;;;7.16;79.52
43503;BME280;29098;48.184;16.298;2023-04-28T05:18:09;99629.66;;;7.22;79.38
43503;BME280;29098;48.184;16.298;2023-04-28T05:20:35;99617.16;;;7.16;79.23
43503;BME280;29098;48.184;16.298;2023-04-28T05:23:02;99607.72;;;7.23;80.44
43503;BME280;29098;48.184;16.298;2023-04-28T05:25:27;99606.34;;;7.19;77.73
43503;BME280;29098;48.184;16.298;2023-04-28T05:27:53;99595.53;;;7.40;78.30
43503;BME280;29098;48.184;16.298;2023-04-28T05:30:19;99595.31;;;7.33;79.54
43503;BME280;29098;48.184;16.298;2023-04-28T05:32:44;99588.25;;;7.60;76.87
43503;BME280;29098;48.184;16.298;2023-04-28T05:35:10;99628.28;;;7.97;76.21
43503;BME280;29098;48.184;16.298;2023-04-28T05:37:35;99586.72;;;7.84;76.50
43503;BME280;29098;48.184;16.298;2023-04-28T05:40:02;99617.28;;;7.93;74.75
43503;BME280;29098;48.184;16.298;2023-04-28T05:42:28;99622.94;;;8.15;73.55
43503;BME280;29098;48.184;16.298;2023-04-28T05:44:57;99612.91;;;8.02;74.08
43503;BME280;29098;48.184;16.298;2023-04-28T05:47:22;99612.06;;;8.02;73.39
43503;BME280;29098;48.184;16.298;2023-04-28T05:49:48;99607.94;;;7.99;72.83
43503;BME280;29098;48.184;16.298;2023-04-28T05:52:13;99624.25;;;8.19;72.17
43503;BME280;29098;48.184;16.298;2023-04-28T05:54:38;99618.06;;;8.20;71.23
43503;BME280;29098;48.184;16.298;2023-04-28T05:57:04;99627.47;;;8.40;71.40
43503;BME280;29098;48.184;16.298;2023-04-28T05:59:29;99632.03;;;8.46;70.96
43503;BME280;29098;48.184;16.298;2023-04-28T06:01:55;99588.69;;;8.25;71.37
43503;BME280;29098;48.184;16.298;2023-04-28T06:04:21;99603.31;;;8.36;71.01
43503;BME280;29098;48.184;16.298;2023-04-28T06:06:47;99615.13;;;8.40;70.52
43503;BME280;29098;48.184;16.298;2023-04-28T06:09:12;99607.78;;;8.52;68.93
43503;BME280;29098;48.184;16.298;2023-04-28T06:11:38;99626.72;;;8.72;69.20
43503;BME280;29098;48.184;16.298;2023-04-28T06:14:03;99638.53;;;8.68;68.95
43503;BME280;29098;48.184;16.298;2023-04-28T06:16:29;99602.91;;;8.74;68.64
43503;BME280;29098;48.184;16.298;2023-04-28T06:18:55;99585.50;;;8.89;67.28
43503;BME280;29098;48.184;16.298;2023-04-28T06:21:20;99612.28;;;8.93;68.35
43503;BME280;29098;48.184;16.298;2023-04-28T06:23:46;99579.25;;;8.82;68.78
43503;BME280;29098;48.184;16.298;2023-04-28T06:26:11;99586.78;;;8.85;68.71
43503;BME280;29098;48.184;16.298;2023-04-28T06:28:37;99579.59;;;8.87;67.91
43503;BME280;29098;48.184;16.298;2023-04-28T06:31:03;99599.13;;;9.10;67.39
43503;BME280;29098;48.184;16.298;2023-04-28T06:33:28;99587.59;;;9.02;68.27
43503;BME280;29098;48.184;16.298;2023-04-28T06:35:57;99606.50;;;9.14;68.40
43503;BME280;29098;48.184;16.298;2023-04-28T06:38:22;99599.59;;;9.30;66.86
43503;BME280;29098;48.184;16.298;2023-04-28T06:40:48;99626.38;;;9.34;66.82
43503;BME280;29098;48.184;16.298;2023-04-28T06:43:13;99584.13;;;9.27;66.74
43503;BME280;29098;48.184;16.298;2023-04-28T06:45:39;99609.59;;;9.35;67.84
43503;BME280;29098;48.184;16.298;2023-04-28T06:48:05;99587.22;;;9.47;66.30
43503;BME280;29098;48.184;16.298;2023-04-28T06:50:32;99544.19;;;9.31;66.49
43503;BME280;29098;48.184;16.298;2023-04-28T06:52:57;99589.97;;;9.62;66.56
43503;BME280;29098;48.184;16.298;2023-04-28T06:55:23;99548.56;;;9.56;66.74
43503;BME280;29098;48.184;16.298;2023-04-28T06:57:51;99574.28;;;9.77;65.81
43503;BME280;29098;48.184;16.298;2023-04-28T07:00:17;99583.75;;;9.95;65.86
43503;BME280;29098;48.184;16.298;2023-04-28T07:02:43;99572.91;;;9.98;65.43
43503;BME280;29098;48.184;16.298;2023-04-28T07:05:08;99562.09;;;9.84;65.22
43503;BME280;29098;48.184;16.298;2023-04-28T07:07:35;99567.88;;;10.11;64.83
43503;BME280;29098;48.184;16.298;2023-04-28T07:10:03;99550.59;;;10.09;66.04
43503;BME280;29098;48.184;16.298;2023-04-28T07:12:28;99551.63;;;10.31;64.56
43503;BME280;29098;48.184;16.298;2023-04-28T07:14:54;99562.19;;;10.54;63.01
43503;BME280;29098;48.184;16.298;2023-04-28T07:17:20;99536.53;;;10.72;62.68
43503;BME280;29098;48.184;16.298;2023-04-28T07:19:45;99569.00;;;11.26;60.55
43503;BME280;29098;48.184;16.298;2023-04-28T07:22:11;99558.28;;;11.42;59.86
43503;BME280;29098;48.184;16.298;2023-04-28T07:24:36;99522.25;;;11.34;59.17
43503;BME280;29098;48.184;16.298;2023-04-28T07:27:02;99529.22;;;11.72;57.72
43503;BME280;29098;48.184;16.298;2023-04-28T07:29:28;99547.03;;;11.85;57.49
43503;BME280;29098;48.184;16.298;2023-04-28T07:32:01;99537.47;;;11.99;56.53
43503;BME280;29098;48.184;16.298;2023-04-28T07:34:29;99545.56;;;12.35;55.33
43503;BME280;29098;48.184;16.298;2023-04-28T07:36:57;99541.03;;;12.28;55.69
43503;BME280;29098;48.184;16.298;2023-04-28T07:39:23;99544.13;;;12.54;54.63
43503;BME280;29098;48.184;16.298;2023-04-28T07:41:48;99554.63;;;12.91;54.53
43503;BME280;29098;48.184;16.298;2023-04-28T07:44:14;99517.72;;;12.82;53.87
43503;BME280;29098;48.184;16.298;2023-04-28T07:46:39;99519.69;;;13.02;53.36
43503;BME280;29098;48.184;16.298;2023-04-28T07:49:05;99529.00;;;13.26;53.58
43503;BME280;29098;48.184;16.298;2023-04-28T07:51:32;99525.84;;;13.45;52.80
43503;BME280;29098;48.184;16.298;2023-04-28T07:53:58;99550.06;;;13.41;52.53
43503;BME280;29098;48.184;16.298;2023-04-28T07:56:24;99527.56;;;13.59;52.16
43503;BME280;29098;48.184;16.298;2023-04-28T07:58:50;99553.50;;;13.70;52.12
43503;BME280;29098;48.184;16.298;2023-04-28T08:01:16;99541.16;;;13.98;51.35
43503;BME280;29098;48.184;16.298;2023-04-28T08:03:41;99546.50;;;14.18;51.17
43503;BME280;29098;48.184;16.298;2023-04-28T08:06:07;99550.50;;;13.94;51.56
43503;BME280;29098;48.184;16.298;2023-04-28T08:08:32;99565.38;;;13.81;51.39
43503;BME280;29098;48.184;16.298;2023-04-28T08:10:59;99529.22;;;13.60;51.94
43503;BME280;29098;48.184;16.298;2023-04-28T08:13:25;99546.25;;;13.51;52.45
43503;BME280;29098;48.184;16.298;2023-04-28T08:15:51;99538.19;;;13.66;51.52
43503;BME280;29098;48.184;16.298;2023-04-28T08:18:16;99534.78;;;13.43;52.04
43503;BME280;29098;48.184;16.298;2023-04-28T08:20:42;99534.94;;;13.35;52.41
43503;BME280;29098;48.184;16.298;2023-04-28T08:23:08;99520.41;;;13.18;52.81
43503;BME280;29098;48.184;16.298;2023-04-28T08:25:34;99508.41;;;13.22;52.55
43503;BME280;29098;48.184;16.298;2023-04-28T08:27:59;99535.91;;;13.56;52.42
43503;BME280;29098;48.184;16.298;2023-04-28T08:30:25;99521.69;;;13.35;52.92
43503;BME280;29098;48.184;16.298;2023-04-28T08:32:50;99499.06;;;13.26;52.53
43503;BME280;29098;48.184;16.298;2023-04-28T08:35:16;99493.00;;;13.39;53.09
43503;BME280;29098;48.184;16.298;2023-04-28T08:37:43;99483.66;;;13.36;53.11
43503;BME280;29098;48.184;16.298;2023-04-28T08:40:09;99472.78;;;13.24;52.48
43503;BME280;29098;48.184;16.298;2023-04-28T08:42:36;99511.88;;;13.58;53.52
43503;BME280;29098;48.184;16.298;2023-04-28T08:45:03;99476.44;;;13.65;52.73
43503;BME280;29098;48.184;16.298;2023-04-28T08:47:34;99502.88;;;14.21;50.49
43503;BME280;29098;48.184;16.298;2023-04-28T08:50:04;99474.91;;;14.05;50.78
43503;BME280;29098;48.184;16.298;2023-04-28T08:52:31;99470.47;;;14.25;50.20
43503;BME280;29098;48.184;16.298;2023-04-28T08:54:58;99481.69;;;14.61;50.64
43503;BME280;29098;48.184;16.298;2023-04-28T08:57:26;99499.44;;;14.68;49.30
43503;BME280;29098;48.184;16.298;2023-04-28T08:59:54;99467.41;;;14.42;49.70
43503;BME280;29098;48.184;16.298;2023-04-28T09:02:21;99483.31;;;14.42;49.94
43503;BME280;29098;48.184;16.298;2023-04-28T09:04:46;99463.34;;;14.46;50.25
43503;BME280;29098;48.184;16.298;2023-04-28T09:07:13;99460.69;;;14.46;49.64
43503;BME280;29098;48.184;16.298;2023-04-28T09:09:39;99452.91;;;14.45;49.48
43503;BME280;29098;48.184;16.298;2023-04-28T09:12:06;99471.28;;;14.66;49.67
43503;BME280;29098;48.184;16.298;2023-04-28T09:14:33;99449.84;;;14.68;49.41
43503;BME280;29098;48.184;16.298;2023-04-28T09:17:00;99471.50;;;14.78;49.58
43503;BME280;29098;48.184;16.298;2023-04-28T09:19:33;99465.78;;;14.82;49.83
43503;BME280;29098;48.184;16.298;2023-04-28T09:22:00;99459.84;;;14.79;49.04
43503;BME280;29098;48.184;16.298;2023-04-28T09:24:30;99487.59;;;15.04;49.52
43503;BME280;29098;48.184;16.298;2023-04-28T09:26:57;99440.59;;;15.04;50.01
43503;BME280;29098;48.184;16.298;2023-04-28T09:29:23;99436.31;;;15.10;48.93
43503;BME280;29098;48.184;16.298;2023-04-28T09:31:49;99433.09;;;14.95;48.78
43503;BME280;29098;48.184;16.298;2023-04-28T09:34:14;99420.31;;;15.30;49.16
43503;BME280;29098;48.184;16.298;2023-04-28T09:36:41;99429.06;;;15.31;47.93
43503;BME280;29098;48.184;16.298;2023-04-28T09:39:06;99423.25;;;15.09;47.72
43503;BME280;29098;48.184;16.298;2023-04-28T09:41:42;99443.16;;;15.38;49.35
43503;BME280;29098;48.184;16.298;2023-04-28T09:44:15;99419.38;;;15.57;48.54
43503;BME280;29098;48.184;16.298;2023-04-28T09:46:43;99373.47;;;15.75;49.30
43503;BME280;29098;48.184;16.298;2023-04-28T09:49:09;99399.44;;;16.05;47.15
43503;BME280;29098;48.184;16.298;2023-04-28T09:51:35;99375.47;;;16.12;46.35
43503;BME280;29098;48.184;16.298;2023-04-28T09:54:01;99391.16;;;16.20;45.95
43503;BME280;29098;48.184;16.298;2023-04-28T09:56:28;99397.91;;;16.41;46.43
43503;BME280;29098;48.184;16.298;2023-04-28T09:58:56;99407.78;;;16.78;45.33
43503;BME280;29098;48.184;16.298;2023-04-28T10:01:24;99381.75;;;16.62;45.72
43503;BME280;29098;48.184;16.298;2023-04-28T10:03:52;99367.88;;;16.78;44.80
43503;BME280;29098;48.184;16.298;2023-04-28T10:06:18;99362.03;;;16.69;44.93
43503;BME280;29098;48.184;16.298;2023-04-28T10:08:44;99362.09;;;16.81;45.84
43503;BME280;29098;48.184;16.298;2023-04-28T10:11:13;99374.31;;;17.08;45.33
43503;BME280;29098;48.184;16.298;2023-04-28T10:13:41;99343.53;;;16.93;44.42
43503;BME280;29098;48.184;16.298;2023-04-28T10:16:07;99348.38;;;17.03;45.73
43503;BME280;29098;48.184;16.298;2023-04-28T10:18:35;99353.66;;;17.52;44.37
43503;BME280;29098;48.184;16.298;2023-04-28T10:21:02;99343.63;;;17.36;44.02
43503;BME280;29098;48.184;16.298;2023-04-28T10:26:14;99336.78;;;17.83;43.39
43503;BME280;29098;48.184;16.298;2023-04-28T10:28:50;99347.25;;;18.44;43.09
43503;BME280;29098;48.184;16.298;2023-04-28T10:31:18;99370.38;;;18.38;41.05
43503;BME280;29098;48.184;16.298;2023-04-28T10:33:48;99341.00;;;18.50;41.12
43503;BME280;29098;48.184;16.298;2023-04-28T10:36:45;99327.53;;;18.98;41.44
43503;BME280;29098;48.184;16.298;2023-04-28T10:39:12;99326.72;;;19.09;41.22
43503;BME280;29098;48.184;16.298;2023-04-28T10:41:38;99313.88;;;18.41;40.57
43503;BME280;29098;48.184;16.298;2023-04-28T10:47:08;99308.31;;;18.07;41.89
43503;BME280;29098;48.184;16.298;2023-04-28T11:00:45;99329.78;;;18.24;41.62
43503;BME280;29098;48.184;16.298;2023-04-28T11:06:23;99303.41;;;18.40;41.28
43503;BME280;29098;48.184;16.298;2023-04-28T11:08:58;99286.47;;;18.46;41.27
43503;BME280;29098;48.184;16.298;2023-04-28T11:11:33;99293.84;;;19.09;40.93
43503;BME280;29098;48.184;16.298;2023-04-28T11:16:54;99284.69;;;19.85;38.60
43503;BME280;29098;48.184;16.298;2023-04-28T11:19:21;99271.13;;;19.75;38.49
43503;BME280;29098;48.184;16.298;2023-04-28T11:21:49;99247.56;;;19.54;38.74
43503;BME280;29098;48.184;16.298;2023-04-28T11:24:15;99234.09;;;19.15;39.85
43503;BME280;29098;48.184;16.298;2023-04-28T11:26:43;99233.78;;;19.11;39.93
43503;BME280;29098;48.184;16.298;2023-04-28T11:29:10;99249.03;;;18.99;39.63
43503;BME280;29098;48.184;16.298;2023-04-28T11:31:36;99271.25;;;18.87;39.98
43503;BME280;29098;48.184;16.298;2023-04-28T11:34:04;99270.41;;;18.70;40.02
43503;BME280;29098;48.184;16.298;2023-04-28T11:36:37;99265.41;;;18.90;40.50
43503;BME280;29098;48.184;16.298;2023-04-28T11:39:05;99266.56;;;18.95;39.80
43503;BME280;29098;48.184;16.298;2023-04-28T11:41:32;99260.28;;;19.47;38.72
43503;BME280;29098;48.184;16.298;2023-04-28T11:43:59;99259.56;;;19.35;39.09
43503;BME280;29098;48.184;16.298;2023-04-28T11:46:25;99235.56;;;19.57;38.60
43503;BME280;29098;48.184;16.298;2023-04-28T11:49:01;99185.19;;;19.49;38.18
43503;BME280;29098;48.184;16.298;2023-04-28T11:51:38;99233.44;;;19.93;38.64
43503;BME280;29098;48.184;16.298;2023-04-28T11:54:06;99253.00;;;19.77;38.51
43503;BME280;29098;48.184;16.298;2023-04-28T11:56:38;99231.84;;;19.24;38.98
43503;BME280;29098;48.184;16.298;2023-04-28T11:59:09;99221.72;;;18.97;39.42
43503;BME280;29098;48.184;16.298;2023-04-28T12:01:55;99221.78;;;18.85;39.73
43503;BME280;29098;48.184;16.298;2023-04-28T12:04:37;99216.72;;;18.83;39.96
43503;BME280;29098;48.184;16.298;2023-04-28T12:07:06;99241.88;;;19.16;40.25
43503;BME280;29098;48.184;16.298;2023-04-28T12:09:32;99263.41;;;18.98;39.88
43503;BME280;29098;48.184;16.298;2023-04-28T12:12:00;99238.81;;;18.67;40.40
43503;BME280;29098;48.184;16.298;2023-04-28T12:14:27;99239.63;;;18.26;40.78
43503;BME280;29098;48.184;16.298;2023-04-28T12:16:53;99262.72;;;18.32;40.43
43503;BME280;29098;48.184;16.298;2023-04-28T12:19:19;99237.78;;;18.03;41.60
43503;BME280;29098;48.184;16.298;2023-04-28T12:21:58;99251.94;;;17.79;41.24
43503;BME280;29098;48.184;16.298;2023-04-28T12:24:25;99239.16;;;17.70;41.95
43503;BME280;29098;48.184;16.298;2023-04-28T12:26:51;99279.41;;;17.68;41.99
43503;BME280;29098;48.184;16.298;2023-04-28T12:29:37;99237.53;;;17.57;43.36
43503;BME280;29098;48.184;16.298;2023-04-28T12:32:07;99276.75;;;17.68;41.99
43503;BME280;29098;48.184;16.298;2023-04-28T12:34:33;99254.91;;;17.35;43.28
43503;BME280;29098;48.184;16.298;2023-04-28T12:37:00;99285.94;;;17.30;43.14
43503;BME280;29098;48.184;16.298;2023-04-28T12:39:26;99284.44;;;17.46;43.18
43503;BME280;29098;48.184;16.298;2023-04-28T12:41:51;99255.06;;;17.10;43.39
43503;BME280;29098;48.184;16.298;2023-04-28T12:44:19;99259.13;;;17.13;43.38
43503;BME280;29098;48.184;16.298;2023-04-28T12:46:45;99272.00;;;16.97;43.87
43503;BME280;29098;48.184;16.298;2023-04-28T12:49:11;99272.91;;;16.91;44.01
43503;BME280;29098;48.184;16.298;2023-04-28T12:51:37;99252.59;;;16.78;44.68
43503;BME280;29098;48.184;16.298;2023-04-28T12:54:04;99270.34;;;16.84;44.26
43503;BME280;29098;48.184;16.298;2023-04-28T12:56:29;99275.50;;;16.79;44.76
43503;BME280;29098;48.184;16.298;2023-04-28T12:58:55;99280.06;;;16.90;44.74
43503;BME280;29098;48.184;16.298;2023-04-28T13:01:20;99219.97;;;16.33;44.96
43503;BME280;29098;48.184;16.298;2023-04-28T13:03:45;99273.91;;;16.59;45.34
43503;BME280;29098;48.184;16.298;2023-04-28T13:06:12;99240.38;;;16.39;45.13
43503;BME280;29098;48.184;16.298;2023-04-28T13:08:38;99233.72;;;16.30;45.76
43503;BME280;29098;48.184;16.298;2023-04-28T13:11:04;99260.47;;;16.35;45.75
43503;BME280;29098;48.184;16.298;2023-04-28T13:13:30;99239.19;;;16.35;45.14
43503;BME280;29098;48.184;16.298;2023-04-28T13:15:56;99233.72;;;16.11;45.79